Hartville, Wyoming
Current Conditions -  °F | °C
As of 10:15 AM on Friday 19 Dec 2014 (Local Time) from KGUR Reporting Station
Clear Clear  
Wind Chill: 37°   Ceiling: Unl
Heat Index: 40°   Visibility: 10mi
Dew Point: 28°   Wind: 5mph
Humidity: 63%   Direction: 320°NW
Pressure: 30.05"   Gusts: NA
Location:  42.33°N, 104.73°W
Report Text: KGUR 191715Z AUTO 32004KT 10SM CLR 05/M02 A3005 RMK AO2 T00461020
Loading
Personal Weather Stations






























Interactive Weather Map New forecast layout! Learn more

10-Day Weather Forecast

Advertisements
Track Severe Weather on mobile